createdAt,value
2023-04-18T00:00:10.677Z,25.95
2023-04-18T00:02:44.039Z,24.90
2023-04-18T00:05:13.381Z,26.00
2023-04-18T00:07:41.630Z,29.27
2023-04-18T00:10:11.858Z,37.45
2023-04-18T00:12:40.445Z,16.38
2023-04-18T00:15:09.906Z,29.20
2023-04-18T00:17:39.747Z,24.02
2023-04-18T00:20:10.702Z,30.33
2023-04-18T00:22:42.521Z,31.83
2023-04-18T00:25:12.658Z,44.13
2023-04-18T00:27:40.889Z,34.20
2023-04-18T00:30:10.826Z,33.03
2023-04-18T00:32:39.817Z,30.98
2023-04-18T00:35:08.856Z,35.03
2023-04-18T00:37:37.586Z,36.55
2023-04-18T00:40:07.057Z,37.97
2023-04-18T00:42:36.711Z,26.15
2023-04-18T00:45:05.566Z,29.00
2023-04-18T00:47:36.203Z,29.63
2023-04-18T00:50:04.856Z,25.15
2023-04-18T00:52:34.837Z,26.60
2023-04-18T00:55:03.920Z,27.02
2023-04-18T00:57:32.837Z,28.85
2023-04-18T01:00:04.485Z,28.67
2023-04-18T01:02:35.834Z,25.42
2023-04-18T01:05:06.164Z,27.55
2023-04-18T01:07:35.931Z,32.63
2023-04-18T01:10:04.924Z,32.28
2023-04-18T01:12:33.532Z,22.30
2023-04-18T01:15:04.151Z,30.20
2023-04-18T01:17:35.616Z,24.20
2023-04-18T01:20:06.262Z,30.27
2023-04-18T01:22:35.110Z,25.65
2023-04-18T01:25:10.146Z,26.52
2023-04-18T01:27:38.418Z,18.15
2023-04-18T01:30:08.153Z,22.90
2023-04-18T01:32:36.573Z,27.13
2023-04-18T01:35:05.378Z,33.95
2023-04-18T01:37:36.211Z,29.58
2023-04-18T01:40:04.899Z,25.38
2023-04-18T01:42:34.605Z,21.10
2023-04-18T01:45:03.001Z,22.40
2023-04-18T01:47:31.986Z,23.75
2023-04-18T01:50:00.263Z,25.90
2023-04-18T01:52:31.550Z,18.48
2023-04-18T01:55:02.160Z,21.83
2023-04-18T01:57:32.178Z,18.42
2023-04-18T02:00:01.898Z,21.15
2023-04-18T02:02:32.754Z,21.55
2023-04-18T02:05:01.039Z,21.35
2023-04-18T02:07:29.625Z,21.70
2023-04-18T02:09:58.448Z,25.98
2023-04-18T02:12:26.885Z,41.80
2023-04-18T02:14:55.661Z,52.90
2023-04-18T02:17:25.540Z,116.32
2023-04-18T02:19:56.540Z,146.30
2023-04-18T02:22:24.946Z,86.20
2023-04-18T02:24:53.197Z,48.72
2023-04-18T02:27:21.455Z,72.65
2023-04-18T02:29:49.603Z,65.70
2023-04-18T02:32:18.007Z,59.03
2023-04-18T02:34:47.746Z,41.10
2023-04-18T02:37:18.674Z,46.40
2023-04-18T02:39:46.923Z,51.83
2023-04-18T02:42:15.729Z,46.63
2023-04-18T02:44:44.109Z,41.17
2023-04-18T02:47:12.363Z,32.28
2023-04-18T02:49:43.393Z,31.73
2023-04-18T02:52:13.051Z,22.23
2023-04-18T02:54:41.332Z,22.52
2023-04-18T02:57:14.695Z,23.58
2023-04-18T02:59:55.280Z,36.42
2023-04-18T03:02:42.152Z,36.88
2023-04-18T03:05:30.792Z,27.45
2023-04-18T03:08:03.569Z,35.17
2023-04-18T03:10:32.366Z,27.45
2023-04-18T03:13:01.165Z,26.33
2023-04-18T03:15:31.162Z,23.25
2023-04-18T03:18:00.323Z,22.65
2023-04-18T03:20:33.029Z,20.77
2023-04-18T03:23:01.368Z,26.60
2023-04-18T03:25:34.333Z,27.23
2023-04-18T03:28:03.387Z,27.35
2023-04-18T03:30:33.225Z,25.63
2023-04-18T03:33:05.306Z,24.88
2023-04-18T03:35:34.180Z,23.75
2023-04-18T03:38:02.759Z,23.13
2023-04-18T03:40:36.424Z,26.85
2023-04-18T03:43:11.062Z,19.88
2023-04-18T03:45:39.534Z,21.40
2023-04-18T03:48:08.329Z,21.77
2023-04-18T03:50:41.359Z,25.83
2023-04-18T03:53:11.746Z,24.27
2023-04-18T03:55:43.425Z,22.52
2023-04-18T03:58:14.248Z,25.55
2023-04-18T04:00:43.150Z,20.58
2023-04-18T04:03:13.262Z,21.85
2023-04-18T04:05:41.734Z,23.30
2023-04-18T04:08:10.037Z,21.88
2023-04-18T04:10:38.490Z,20.63
2023-04-18T04:13:08.088Z,16.45
2023-04-18T04:15:39.790Z,19.77
2023-04-18T04:18:11.018Z,23.23
2023-04-18T04:20:43.283Z,21.00
2023-04-18T04:23:15.642Z,18.90
2023-04-18T04:25:46.980Z,21.25
2023-04-18T04:28:28.800Z,23.13
2023-04-18T04:31:02.260Z,20.73
2023-04-18T04:33:33.332Z,19.33
2023-04-18T04:36:05.897Z,18.50
2023-04-18T04:38:38.185Z,20.33
2023-04-18T04:41:07.596Z,19.20
2023-04-18T04:43:37.994Z,16.33
2023-04-18T04:46:07.712Z,15.57
2023-04-18T04:48:36.167Z,16.02
2023-04-18T04:51:05.610Z,20.75
2023-04-18T04:53:34.086Z,17.27
2023-04-18T04:56:04.814Z,19.15
2023-04-18T04:58:35.192Z,20.17
2023-04-18T05:01:25.750Z,21.77
2023-04-18T05:03:55.913Z,18.80
2023-04-18T05:06:25.139Z,20.38
2023-04-18T05:08:53.623Z,20.73
2023-04-18T05:11:22.002Z,24.95
2023-04-18T05:13:50.313Z,16.77
2023-04-18T05:16:18.793Z,16.30
2023-04-18T05:18:48.447Z,13.25
2023-04-18T05:21:16.697Z,16.02
2023-04-18T05:23:44.965Z,17.40
2023-04-18T05:26:13.462Z,15.93
2023-04-18T05:28:41.653Z,19.70
2023-04-18T05:31:10.011Z,14.20
2023-04-18T05:33:38.308Z,19.27
2023-04-18T05:36:08.961Z,19.98
2023-04-18T05:38:37.313Z,22.83
2023-04-18T05:41:05.721Z,24.17
2023-04-18T05:43:34.639Z,26.08
2023-04-18T05:46:02.995Z,21.55
2023-04-18T05:48:31.351Z,24.13
2023-04-18T05:50:59.769Z,24.63
2023-04-18T05:53:29.450Z,23.33
2023-04-18T05:55:59.184Z,19.95
2023-04-18T05:58:28.798Z,20.10
2023-04-18T06:00:57.311Z,20.08
2023-04-18T06:03:26.004Z,19.95
2023-04-18T06:05:54.740Z,22.52
2023-04-18T06:08:23.119Z,19.67
2023-04-18T06:10:53.183Z,21.05
2023-04-18T06:13:21.578Z,19.52
2023-04-18T06:15:49.897Z,24.33
2023-04-18T06:18:18.183Z,20.17
2023-04-18T06:21:05.398Z,24.23
2023-04-18T06:23:52.316Z,20.67
2023-04-18T06:26:40.893Z,24.85
2023-04-18T06:29:09.299Z,23.63
2023-04-18T06:31:37.547Z,25.38
2023-04-18T06:34:07.429Z,27.90
2023-04-18T06:36:35.722Z,19.50
2023-04-18T06:39:04.049Z,19.80
2023-04-18T06:41:32.735Z,13.70
2023-04-18T06:44:04.624Z,20.42
2023-04-18T06:46:33.755Z,15.32
2023-04-18T06:49:02.339Z,14.38
2023-04-18T06:51:31.664Z,13.48
2023-04-18T06:53:59.938Z,13.70
2023-04-18T06:56:29.654Z,13.10
2023-04-18T06:58:57.814Z,11.70
2023-04-18T07:01:27.594Z,15.02
2023-04-18T07:03:55.919Z,14.15
2023-04-18T07:06:24.233Z,13.73
2023-04-18T07:08:54.414Z,12.43
2023-04-18T07:11:23.657Z,17.30
2023-04-18T07:13:51.934Z,17.58
2023-04-18T07:16:20.386Z,18.80
2023-04-18T07:18:49.997Z,12.57
2023-04-18T07:21:18.228Z,13.80
2023-04-18T07:23:46.475Z,14.90
2023-04-18T07:26:14.815Z,23.85
2023-04-18T07:28:43.135Z,17.60
2023-04-18T07:31:11.829Z,11.65
2023-04-18T07:33:40.256Z,17.45
2023-04-18T07:36:10.430Z,16.55
2023-04-18T07:38:38.595Z,19.27
2023-04-18T07:41:06.931Z,22.67
2023-04-18T07:43:35.192Z,21.40
2023-04-18T07:46:03.529Z,27.70
2023-04-18T07:48:31.787Z,26.67
2023-04-18T07:51:00.080Z,22.27
2023-04-18T07:53:29.668Z,23.70
2023-04-18T07:55:57.888Z,25.77
2023-04-18T07:58:26.110Z,23.10
2023-04-18T08:00:54.336Z,27.55
2023-04-18T08:03:22.747Z,23.27
2023-04-18T08:05:51.974Z,23.00
2023-04-18T08:08:20.861Z,25.23
2023-04-18T08:10:50.947Z,29.05
2023-04-18T08:13:19.182Z,23.40
2023-04-18T08:15:47.751Z,27.55
2023-04-18T08:18:16.027Z,25.92
2023-04-18T08:20:44.247Z,25.58
2023-04-18T08:23:13.347Z,34.40
2023-04-18T08:25:41.856Z,30.33
2023-04-18T08:28:11.797Z,25.55
2023-04-18T08:30:40.100Z,25.80
2023-04-18T08:33:08.387Z,29.88
2023-04-18T08:35:37.619Z,28.25
2023-04-18T08:38:05.833Z,28.42
2023-04-18T08:40:34.432Z,28.77
2023-04-18T08:43:04.927Z,41.53
2023-04-18T08:45:34.785Z,25.95
2023-04-18T08:48:04.011Z,37.40
2023-04-18T08:50:32.632Z,30.98
2023-04-18T08:53:02.001Z,32.28
2023-04-18T08:55:30.462Z,26.50
2023-04-18T08:57:59.701Z,22.83
2023-04-18T09:00:29.354Z,34.22
2023-04-18T09:02:59.261Z,31.20
2023-04-18T09:05:28.345Z,34.60
2023-04-18T09:07:57.511Z,28.08
2023-04-18T09:10:28.920Z,19.75
2023-04-18T09:12:58.560Z,36.45
2023-04-18T09:15:29.334Z,22.20
2023-04-18T09:18:02.705Z,26.80
2023-04-18T09:20:38.088Z,19.95
2023-04-18T09:23:11.026Z,22.98
2023-04-18T09:25:46.624Z,26.17
2023-04-18T09:28:27.082Z,28.13
2023-04-18T09:30:57.091Z,17.30
2023-04-18T09:33:32.622Z,26.95
2023-04-18T09:36:19.408Z,34.85
2023-04-18T09:38:48.300Z,23.92
2023-04-18T09:41:19.844Z,23.83
2023-04-18T09:43:50.709Z,23.42
2023-04-18T09:46:19.045Z,14.38
2023-04-18T09:48:49.202Z,33.95
2023-04-18T09:51:18.116Z,18.65
2023-04-18T09:53:47.785Z,18.13
2023-04-18T09:56:21.426Z,17.52
2023-04-18T09:58:57.048Z,15.07
2023-04-18T10:01:28.974Z,10.57
2023-04-18T10:04:03.433Z,19.02
2023-04-18T10:06:34.584Z,13.05
2023-04-18T10:09:05.845Z,13.63
2023-04-18T10:11:34.454Z,19.58
2023-04-18T10:14:05.751Z,14.63
2023-04-18T10:16:36.114Z,19.48
2023-04-18T10:19:27.194Z,20.38
2023-04-18T10:21:56.778Z,13.23
2023-04-18T10:24:50.409Z,18.05
2023-04-18T10:27:19.734Z,26.23
2023-04-18T10:29:50.068Z,25.73
2023-04-18T10:32:20.724Z,17.60
2023-04-18T10:34:53.449Z,12.90
2023-04-18T10:37:21.798Z,15.70
2023-04-18T10:39:57.012Z,17.73
2023-04-18T10:42:58.878Z,12.18
2023-04-18T10:45:28.622Z,18.83
2023-04-18T10:48:25.940Z,14.45
2023-04-18T10:51:16.288Z,16.42
2023-04-18T10:53:55.227Z,12.18
2023-04-18T10:56:23.742Z,13.68
2023-04-18T10:58:53.342Z,10.95
2023-04-18T11:01:31.684Z,17.35
2023-04-18T11:04:01.692Z,10.93
2023-04-18T11:06:31.784Z,15.50
2023-04-18T11:09:12.626Z,17.75
2023-04-18T11:11:41.678Z,19.67
2023-04-18T11:14:10.219Z,14.55
2023-04-18T11:16:38.925Z,12.73
2023-04-18T11:19:21.168Z,20.58
2023-04-18T11:21:51.848Z,13.93
2023-04-18T11:24:24.482Z,15.52
2023-04-18T11:26:55.936Z,10.77
2023-04-18T11:29:25.133Z,15.23
2023-04-18T11:31:56.687Z,12.05
2023-04-18T11:34:30.593Z,14.75
2023-04-18T11:37:00.906Z,18.13
2023-04-18T11:39:29.403Z,13.40
2023-04-18T11:41:58.292Z,25.92
2023-04-18T11:44:27.710Z,19.77
2023-04-18T11:46:55.939Z,12.95
2023-04-18T11:49:29.205Z,14.55
2023-04-18T11:51:57.741Z,16.80
2023-04-18T11:54:44.906Z,10.52
2023-04-18T11:57:25.443Z,16.05
2023-04-18T11:59:55.229Z,8.35
2023-04-18T12:02:25.363Z,8.38
2023-04-18T12:04:56.084Z,14.98
2023-04-18T12:07:32.398Z,6.90
2023-04-18T12:10:02.481Z,14.02
2023-04-18T12:12:32.381Z,7.20
2023-04-18T12:15:02.113Z,19.20
2023-04-18T12:17:34.434Z,8.38
2023-04-18T12:20:04.180Z,8.93
2023-04-18T12:22:46.540Z,13.20
2023-04-18T12:25:23.507Z,4.93
2023-04-18T12:27:56.367Z,13.10
2023-04-18T12:30:26.204Z,9.75
2023-04-18T12:32:57.221Z,8.20
2023-04-18T12:35:26.538Z,19.70
2023-04-18T12:37:56.551Z,12.40
2023-04-18T12:40:27.461Z,8.05
2023-04-18T12:42:56.292Z,5.50
2023-04-18T12:45:25.769Z,12.38
2023-04-18T12:47:54.429Z,14.20
2023-04-18T12:50:24.658Z,8.68
2023-04-18T12:52:53.924Z,16.48
2023-04-18T12:55:22.773Z,8.80
2023-04-18T12:57:54.850Z,8.50
2023-04-18T13:00:24.469Z,8.07
2023-04-18T13:02:53.424Z,12.10
2023-04-18T13:05:23.316Z,12.32
2023-04-18T13:07:58.570Z,8.85
2023-04-18T13:10:33.447Z,10.48
2023-04-18T13:13:03.088Z,9.32
2023-04-18T13:15:31.504Z,10.98
2023-04-18T13:18:04.530Z,10.85
2023-04-18T13:20:34.079Z,12.00
2023-04-18T13:23:03.352Z,8.07
2023-04-18T13:25:31.919Z,13.93
2023-04-18T13:28:00.951Z,10.95
2023-04-18T13:30:32.083Z,14.85
2023-04-18T13:33:00.518Z,8.20
2023-04-18T13:35:28.802Z,9.00
2023-04-18T13:37:57.185Z,10.35
2023-04-18T13:40:25.435Z,17.98
2023-04-18T13:42:53.708Z,11.80
2023-04-18T13:45:22.008Z,11.57
2023-04-18T13:47:51.836Z,9.63
2023-04-18T13:50:20.329Z,10.30
2023-04-18T13:52:49.390Z,5.63
2023-04-18T13:55:18.723Z,6.82
2023-04-18T13:57:48.383Z,8.23
2023-04-18T14:00:17.569Z,15.35
2023-04-18T14:02:45.901Z,6.65
2023-04-18T14:05:16.057Z,14.07
2023-04-18T14:07:44.322Z,9.68
2023-04-18T14:10:12.849Z,7.90
2023-04-18T14:12:41.203Z,11.23
2023-04-18T14:15:10.902Z,10.25
2023-04-18T14:17:39.442Z,6.30
2023-04-18T14:20:09.340Z,8.85
2023-04-18T14:22:39.033Z,3.72
2023-04-18T14:25:08.760Z,8.50
2023-04-18T14:27:37.581Z,7.18
2023-04-18T14:30:08.714Z,10.55
2023-04-18T14:32:37.284Z,8.60
2023-04-18T14:35:07.100Z,4.22
2023-04-18T14:37:35.491Z,9.98
2023-04-18T14:40:08.360Z,6.07
2023-04-18T14:42:39.410Z,4.82
2023-04-18T14:45:11.615Z,9.90
2023-04-18T14:47:40.243Z,11.25
2023-04-18T14:50:11.805Z,10.43
2023-04-18T14:52:41.545Z,8.43
2023-04-18T14:55:11.612Z,9.57
2023-04-18T14:57:40.505Z,6.28
2023-04-18T15:00:10.422Z,6.97
2023-04-18T15:02:38.842Z,9.18
2023-04-18T15:05:08.513Z,5.15
2023-04-18T15:07:38.019Z,10.55
2023-04-18T15:10:07.525Z,7.05
2023-04-18T15:12:37.285Z,23.67
2023-04-18T15:15:06.360Z,12.57
2023-04-18T15:17:34.715Z,12.63
2023-04-18T15:20:05.635Z,12.88
2023-04-18T15:22:34.009Z,10.25
2023-04-18T15:25:02.415Z,20.67
2023-04-18T15:27:32.153Z,8.95
2023-04-18T15:30:02.419Z,5.75
2023-04-18T15:32:34.263Z,8.57
2023-04-18T15:35:03.054Z,14.73
2023-04-18T15:37:32.924Z,7.32
2023-04-18T15:40:02.120Z,7.40
2023-04-18T15:42:31.893Z,6.57
2023-04-18T15:45:01.720Z,5.35
2023-04-18T15:47:33.874Z,3.30
2023-04-18T15:50:03.389Z,7.85
2023-04-18T15:52:33.726Z,10.85
2023-04-18T15:55:02.125Z,8.88
2023-04-18T15:57:32.992Z,8.50
2023-04-18T16:00:02.813Z,6.70
2023-04-18T16:02:33.676Z,7.88
2023-04-18T16:05:01.929Z,7.45
2023-04-18T16:07:31.847Z,7.93
2023-04-18T16:10:02.639Z,6.13
2023-04-18T16:12:32.704Z,7.47
2023-04-18T16:15:02.322Z,5.10
2023-04-18T16:17:33.807Z,10.32
2023-04-18T16:20:02.476Z,4.93
2023-04-18T16:22:31.792Z,5.22
2023-04-18T16:25:00.221Z,3.17
2023-04-18T16:27:29.054Z,10.90
2023-04-18T16:29:57.406Z,8.23
2023-04-18T16:32:27.088Z,5.20
2023-04-18T16:34:55.409Z,6.00
2023-04-18T16:37:23.701Z,4.47
2023-04-18T16:39:52.020Z,10.15
2023-04-18T16:42:20.284Z,7.45
2023-04-18T16:44:48.548Z,9.40
2023-04-18T16:47:16.797Z,5.45
2023-04-18T16:49:47.801Z,12.90
2023-04-18T16:52:16.982Z,9.68
2023-04-18T16:54:45.563Z,10.27
2023-04-18T16:57:13.999Z,8.73
2023-04-18T16:59:42.757Z,11.48
2023-04-18T17:02:12.068Z,14.95
2023-04-18T17:04:41.114Z,5.15
2023-04-18T17:07:10.997Z,9.88
2023-04-18T17:09:39.474Z,9.23
2023-04-18T17:12:08.150Z,7.18
2023-04-18T17:14:37.550Z,7.68
2023-04-18T17:17:05.943Z,10.40
2023-04-18T17:19:34.211Z,14.35
2023-04-18T17:22:03.618Z,7.03
2023-04-18T17:24:33.491Z,9.25
2023-04-18T17:27:01.814Z,9.18
2023-04-18T17:29:30.384Z,12.38
2023-04-18T17:31:58.776Z,10.23
2023-04-18T17:34:27.066Z,15.38
2023-04-18T17:36:55.609Z,17.35
2023-04-18T17:39:27.109Z,11.25
2023-04-18T17:41:57.630Z,13.18
2023-04-18T17:44:26.186Z,9.75
2023-04-18T17:46:54.650Z,11.63
2023-04-18T17:49:23.136Z,13.18
2023-04-18T17:51:52.067Z,10.77
2023-04-18T17:54:20.691Z,21.50
2023-04-18T17:56:50.487Z,12.15
2023-04-18T17:59:20.438Z,7.75
2023-04-18T18:01:49.134Z,9.15
2023-04-18T18:04:18.074Z,8.40
2023-04-18T18:06:55.881Z,9.90
2023-04-18T18:09:24.901Z,9.32
2023-04-18T18:11:55.943Z,14.13
2023-04-18T18:14:26.587Z,23.10
2023-04-18T18:16:55.218Z,17.85
2023-04-18T18:19:26.383Z,13.02
2023-04-18T18:21:56.310Z,14.18
2023-04-18T18:24:27.085Z,18.48
2023-04-18T18:26:56.508Z,12.82
2023-04-18T18:29:26.747Z,15.10
2023-04-18T18:31:55.474Z,10.55
2023-04-18T18:34:24.054Z,12.25
2023-04-18T18:36:52.762Z,10.60
2023-04-18T18:39:21.367Z,11.18
2023-04-18T18:41:50.146Z,13.73
2023-04-18T18:44:18.415Z,13.35
2023-04-18T18:46:48.409Z,11.80
2023-04-18T18:49:17.008Z,9.25
2023-04-18T18:51:45.432Z,8.93
2023-04-18T18:54:13.775Z,17.55
2023-04-18T18:56:42.908Z,17.98
2023-04-18T18:59:11.629Z,16.80
2023-04-18T19:01:40.126Z,14.75
2023-04-18T19:04:10.894Z,12.20
2023-04-18T19:06:40.243Z,15.65
2023-04-18T19:09:08.614Z,14.75
2023-04-18T19:11:37.036Z,16.40
2023-04-18T19:14:06.139Z,12.88
2023-04-18T19:16:36.078Z,9.75
2023-04-18T19:19:04.863Z,8.32
2023-04-18T19:21:36.590Z,11.05
2023-04-18T19:24:05.675Z,11.10
2023-04-18T19:26:34.319Z,13.00
2023-04-18T19:29:03.035Z,11.65
2023-04-18T19:31:32.291Z,15.60
2023-04-18T19:34:00.844Z,43.08
2023-04-18T19:36:29.582Z,27.48
2023-04-18T19:38:59.648Z,34.80
2023-04-18T19:41:27.957Z,30.08
2023-04-18T19:43:56.781Z,24.17
2023-04-18T19:46:25.460Z,24.20
2023-04-18T19:48:53.853Z,28.00
2023-04-18T19:51:22.162Z,18.35
2023-04-18T19:53:51.144Z,20.45
2023-04-18T19:56:20.917Z,26.02
2023-04-18T19:58:49.335Z,13.18
2023-04-18T20:01:19.807Z,24.08
2023-04-18T20:03:49.361Z,16.48
2023-04-18T20:06:18.966Z,15.45
2023-04-18T20:08:47.324Z,11.27
2023-04-18T20:11:15.929Z,13.32
2023-04-18T20:13:46.069Z,14.48
2023-04-18T20:16:16.606Z,8.00
2023-04-18T20:18:47.555Z,12.73
2023-04-18T20:21:16.475Z,9.57
2023-04-18T20:23:45.337Z,10.70
2023-04-18T20:26:13.754Z,10.30
2023-04-18T20:28:42.003Z,8.45
2023-04-18T20:31:12.696Z,12.45
2023-04-18T20:33:41.259Z,8.73
2023-04-18T20:36:09.792Z,13.32
2023-04-18T20:38:38.144Z,14.00
2023-04-18T20:41:10.747Z,13.07
2023-04-18T20:43:39.116Z,13.55
2023-04-18T20:46:07.619Z,14.32
2023-04-18T20:48:37.660Z,6.85
2023-04-18T20:51:06.241Z,8.52
2023-04-18T20:53:34.533Z,12.82
2023-04-18T20:56:03.521Z,12.73
2023-04-18T20:58:32.318Z,9.65
2023-04-18T21:01:00.879Z,9.77
2023-04-18T21:03:29.329Z,9.40
2023-04-18T21:05:59.329Z,9.40
2023-04-18T21:08:27.612Z,14.23
2023-04-18T21:10:55.876Z,9.02
2023-04-18T21:13:24.573Z,10.05
2023-04-18T21:15:57.087Z,11.02
2023-04-18T21:18:25.906Z,10.23
2023-04-18T21:20:54.501Z,8.73
2023-04-18T21:23:25.295Z,9.93
2023-04-18T21:25:53.648Z,8.65
2023-04-18T21:28:21.952Z,9.90
2023-04-18T21:30:50.862Z,12.52
2023-04-18T21:33:19.322Z,14.20
2023-04-18T21:35:47.663Z,15.43
2023-04-18T21:38:15.944Z,13.13
2023-04-18T21:40:45.581Z,12.95
2023-04-18T21:43:13.835Z,10.23
2023-04-18T21:45:42.155Z,9.30
2023-04-18T21:48:10.613Z,8.73
2023-04-18T21:50:38.900Z,11.65
2023-04-18T21:53:07.189Z,7.55
2023-04-18T21:55:35.639Z,12.25
2023-04-18T21:58:06.643Z,8.43
2023-04-18T22:00:34.872Z,6.20
2023-04-18T22:03:03.170Z,10.40
2023-04-18T22:05:33.344Z,6.72
2023-04-18T22:08:03.022Z,4.50
2023-04-18T22:10:31.213Z,7.03
2023-04-18T22:13:00.231Z,6.60
2023-04-18T22:15:30.137Z,8.15
2023-04-18T22:17:59.085Z,7.13
2023-04-18T22:20:27.444Z,9.57
2023-04-18T22:22:55.836Z,6.65
2023-04-18T22:25:24.068Z,7.85
2023-04-18T22:27:52.488Z,10.05
2023-04-18T22:30:20.756Z,9.30
2023-04-18T22:32:50.550Z,6.68
2023-04-18T22:35:19.026Z,12.95
2023-04-18T22:37:47.318Z,5.88
2023-04-18T22:40:16.546Z,10.07
2023-04-18T22:42:44.956Z,10.25
2023-04-18T22:45:13.731Z,11.10
2023-04-18T22:47:42.157Z,8.80
2023-04-18T22:50:12.561Z,8.63
2023-04-18T22:52:41.280Z,4.40
2023-04-18T22:55:10.394Z,6.88
2023-04-18T22:57:39.509Z,4.85
2023-04-18T23:00:10.321Z,10.05
2023-04-18T23:02:38.955Z,11.38
2023-04-18T23:05:08.050Z,6.18
2023-04-18T23:07:37.873Z,8.57
2023-04-18T23:10:07.690Z,8.48
2023-04-18T23:12:35.872Z,6.28
2023-04-18T23:15:04.232Z,8.50
2023-04-18T23:17:35.882Z,6.35
2023-04-18T23:20:06.860Z,9.00
2023-04-18T23:22:35.166Z,11.45
2023-04-18T23:25:05.162Z,6.78
2023-04-18T23:27:33.416Z,6.55
2023-04-18T23:30:01.724Z,7.50
2023-04-18T23:32:33.336Z,9.55
2023-04-18T23:35:04.254Z,4.55
2023-04-18T23:37:35.457Z,6.55
2023-04-18T23:40:06.921Z,7.72
2023-04-18T23:42:35.936Z,8.73
2023-04-18T23:45:05.901Z,10.15
2023-04-18T23:47:35.964Z,9.60
2023-04-18T23:50:04.366Z,6.45
2023-04-18T23:52:34.329Z,7.53
2023-04-18T23:55:02.865Z,7.90
2023-04-18T23:57:36.048Z,7.55
